sensor_id;sensor_type;location;lat;lon;timestamp;pressure;altitude;pressure_sealevel;temperature;humidity
45467;BME280;31212;49.734;8.490;2023-01-29T08:02:44;101487.44;;;-1.79;77.49
45467;BME280;31212;49.734;8.490;2023-01-29T08:05:10;101483.88;;;-1.70;77.68
45467;BME280;31212;49.734;8.490;2023-01-29T08:07:37;101458.00;;;-1.50;76.88
45467;BME280;31212;49.734;8.490;2023-01-29T08:10:04;101432.03;;;-1.33;76.65
45467;BME280;31212;49.734;8.490;2023-01-29T08:12:31;101397.09;;;-1.22;76.08
45467;BME280;31212;49.734;8.490;2023-01-29T08:14:57;101386.34;;;-1.05;75.85
45467;BME280;31212;49.734;8.490;2023-01-29T08:17:24;101365.88;;;-0.93;75.26
45467;BME280;31212;49.734;8.490;2023-01-29T08:19:52;101340.19;;;-0.82;74.39
45467;BME280;31212;49.734;8.490;2023-01-29T08:22:18;101310.66;;;-0.65;74.31
45467;BME280;31212;49.734;8.490;2023-01-29T08:24:45;101247.06;;;-0.49;73.52
45467;BME280;31212;49.734;8.490;2023-01-29T08:27:12;101223.88;;;-0.39;72.86
45467;BME280;31212;49.734;8.490;2023-01-29T08:29:38;101186.59;;;-0.37;72.28
45467;BME280;31212;49.734;8.490;2023-01-29T08:32:08;101170.34;;;-0.24;71.95
45467;BME280;31212;49.734;8.490;2023-01-29T08:34:34;101165.69;;;-0.16;71.68
45467;BME280;31212;49.734;8.490;2023-01-29T08:37:02;101180.59;;;0.06;71.54
45467;BME280;31212;49.734;8.490;2023-01-29T08:39:29;101140.81;;;0.10;70.99
45467;BME280;31212;49.734;8.490;2023-01-29T08:41:55;101133.75;;;0.06;71.02
45467;BME280;31212;49.734;8.490;2023-01-29T08:44:22;101084.69;;;0.26;70.34
45467;BME280;31212;49.734;8.490;2023-01-29T08:46:48;101063.63;;;0.30;70.46
45467;BME280;31212;49.734;8.490;2023-01-29T08:49:15;101037.50;;;0.51;69.69
45467;BME280;31212;49.734;8.490;2023-01-29T08:51:42;101016.31;;;1.02;68.97
45467;BME280;31212;49.734;8.490;2023-01-29T08:54:09;100957.66;;;1.39;68.25
45467;BME280;31212;49.734;8.490;2023-01-29T08:56:36;100868.13;;;1.77;66.75
45467;BME280;31212;49.734;8.490;2023-01-29T08:59:03;100816.19;;;1.97;65.68
45467;BME280;31212;49.734;8.490;2023-01-29T09:01:29;100758.09;;;1.96;64.97
45467;BME280;31212;49.734;8.490;2023-01-29T09:03:56;100704.44;;;1.99;63.95
45467;BME280;31212;49.734;8.490;2023-01-29T09:06:22;100681.03;;;1.71;64.01
45467;BME280;31212;49.734;8.490;2023-01-29T09:08:49;100676.78;;;1.71;63.92
45467;BME280;31212;49.734;8.490;2023-01-29T09:11:17;100669.66;;;1.64;63.63
45467;BME280;31212;49.734;8.490;2023-01-29T09:13:43;100691.66;;;1.80;63.67
45467;BME280;31212;49.734;8.490;2023-01-29T09:16:10;100682.50;;;1.85;63.49
45467;BME280;31212;49.734;8.490;2023-01-29T09:18:36;100616.84;;;1.66;62.84
45467;BME280;31212;49.734;8.490;2023-01-29T09:21:03;100651.06;;;1.68;62.86
45467;BME280;31212;49.734;8.490;2023-01-29T09:23:31;100624.44;;;1.84;62.60
45467;BME280;31212;49.734;8.490;2023-01-29T09:25:57;100561.31;;;1.63;61.81
45467;BME280;31212;49.734;8.490;2023-01-29T09:28:25;100531.31;;;1.40;61.50
45467;BME280;31212;49.734;8.490;2023-01-29T09:30:52;100609.13;;;1.25;62.66
45467;BME280;31212;49.734;8.490;2023-01-29T09:33:18;100583.72;;;0.71;62.55
45467;BME280;31212;49.734;8.490;2023-01-29T09:35:45;100712.28;;;0.88;63.72
45467;BME280;31212;49.734;8.490;2023-01-29T09:38:12;100723.44;;;0.90;63.82
45467;BME280;31212;49.734;8.490;2023-01-29T09:40:46;100763.81;;;0.79;64.61
45467;BME280;31212;49.734;8.490;2023-01-29T09:43:19;100763.31;;;0.69;64.43
45467;BME280;31212;49.734;8.490;2023-01-29T09:45:52;100795.66;;;0.68;64.80
45467;BME280;31212;49.734;8.490;2023-01-29T09:48:22;100859.84;;;0.74;65.12
45467;BME280;31212;49.734;8.490;2023-01-29T09:50:52;100826.00;;;0.78;64.77
45467;BME280;31212;49.734;8.490;2023-01-29T09:53:25;100855.13;;;0.82;65.08
45467;BME280;31212;49.734;8.490;2023-01-29T09:55:58;100836.59;;;0.52;65.37
45467;BME280;31212;49.734;8.490;2023-01-29T09:58:30;100880.00;;;0.52;65.59
45467;BME280;31212;49.734;8.490;2023-01-29T10:01:09;100855.19;;;0.49;65.37
45467;BME280;31212;49.734;8.490;2023-01-29T10:04:14;100874.00;;;0.51;65.63
45467;BME280;31212;49.734;8.490;2023-01-29T10:07:00;100873.31;;;0.37;65.89
45467;BME280;31212;49.734;8.490;2023-01-29T10:09:49;100871.53;;;0.53;65.71
45467;BME280;31212;49.734;8.490;2023-01-29T10:12:35;100864.81;;;0.55;65.71
45467;BME280;31212;49.734;8.490;2023-01-29T10:15:20;100872.19;;;0.65;65.59
45467;BME280;31212;49.734;8.490;2023-01-29T10:17:53;100865.16;;;0.61;65.23
45467;BME280;31212;49.734;8.490;2023-01-29T10:20:37;100840.47;;;0.61;65.34
45467;BME280;31212;49.734;8.490;2023-01-29T10:23:15;100846.50;;;0.63;65.24
45467;BME280;31212;49.734;8.490;2023-01-29T10:25:44;100867.47;;;0.56;65.56
45467;BME280;31212;49.734;8.490;2023-01-29T10:28:17;100865.06;;;0.43;65.46
45467;BME280;31212;49.734;8.490;2023-01-29T10:30:47;100897.19;;;0.54;66.02
45467;BME280;31212;49.734;8.490;2023-01-29T10:33:22;100892.84;;;0.53;65.91
45467;BME280;31212;49.734;8.490;2023-01-29T10:35:53;100872.41;;;0.53;65.93
45467;BME280;31212;49.734;8.490;2023-01-29T10:38:33;100888.16;;;0.61;66.23
45467;BME280;31212;49.734;8.490;2023-01-29T10:41:10;100842.31;;;0.64;65.57
45467;BME280;31212;49.734;8.490;2023-01-29T10:43:50;100873.97;;;0.84;65.59
45467;BME280;31212;49.734;8.490;2023-01-29T10:46:28;100863.00;;;1.39;65.33
45467;BME280;31212;49.734;8.490;2023-01-29T10:49:09;100811.88;;;1.59;64.41
45467;BME280;31212;49.734;8.490;2023-01-29T10:51:51;100733.25;;;1.74;63.64
45467;BME280;31212;49.734;8.490;2023-01-29T10:54:42;100640.97;;;1.51;62.76
45467;BME280;31212;49.734;8.490;2023-01-29T10:57:17;100670.78;;;1.51;63.15
45467;BME280;31212;49.734;8.490;2023-01-29T10:59:58;100683.38;;;1.46;63.15
45467;BME280;31212;49.734;8.490;2023-01-29T11:02:28;100626.03;;;1.41;62.59
45467;BME280;31212;49.734;8.490;2023-01-29T11:04:56;100643.88;;;1.40;63.21
45467;BME280;31212;49.734;8.490;2023-01-29T11:07:23;100600.72;;;1.47;62.63
45467;BME280;31212;49.734;8.490;2023-01-29T11:09:56;100616.03;;;1.67;62.42
45467;BME280;31212;49.734;8.490;2023-01-29T11:12:27;100565.75;;;1.67;62.37
45467;BME280;31212;49.734;8.490;2023-01-29T11:15:00;100593.81;;;1.66;62.49
45467;BME280;31212;49.734;8.490;2023-01-29T11:17:30;100575.72;;;2.04;61.76
45467;BME280;31212;49.734;8.490;2023-01-29T11:19:58;100541.88;;;2.33;61.01
45467;BME280;31212;49.734;8.490;2023-01-29T11:22:26;100454.56;;;2.27;59.76
45467;BME280;31212;49.734;8.490;2023-01-29T11:25:14;100428.53;;;2.39;59.49
45467;BME280;31212;49.734;8.490;2023-01-29T11:27:44;100444.09;;;2.45;59.79
45467;BME280;31212;49.734;8.490;2023-01-29T11:30:17;100432.91;;;2.42;59.82
45467;BME280;31212;49.734;8.490;2023-01-29T11:32:49;100498.81;;;2.46;60.57
45467;BME280;31212;49.734;8.490;2023-01-29T11:35:23;100459.22;;;2.38;60.22
45467;BME280;31212;49.734;8.490;2023-01-29T11:37:50;100441.16;;;2.34;60.60
45467;BME280;31212;49.734;8.490;2023-01-29T11:40:41;100413.50;;;2.48;59.85
45467;BME280;31212;49.734;8.490;2023-01-29T11:43:17;100349.22;;;2.42;58.95
45467;BME280;31212;49.734;8.490;2023-01-29T11:45:44;100345.91;;;1.98;59.73
45467;BME280;31212;49.734;8.490;2023-01-29T11:48:13;100432.06;;;1.96;60.57
45467;BME280;31212;49.734;8.490;2023-01-29T11:50:43;100434.69;;;1.76;60.63
45467;BME280;31212;49.734;8.490;2023-01-29T11:53:43;100461.69;;;1.68;60.69
45467;BME280;31212;49.734;8.490;2023-01-29T11:56:27;100430.59;;;1.80;60.46
45467;BME280;31212;49.734;8.490;2023-01-29T11:58:55;100447.28;;;1.70;60.76
45467;BME280;31212;49.734;8.490;2023-01-29T12:01:29;100452.13;;;1.64;61.22
45467;BME280;31212;49.734;8.490;2023-01-29T12:03:57;100475.16;;;1.64;61.21
45467;BME280;31212;49.734;8.490;2023-01-29T12:06:32;100501.31;;;1.36;61.96
45467;BME280;31212;49.734;8.490;2023-01-29T12:09:01;100529.91;;;1.27;62.52
45467;BME280;31212;49.734;8.490;2023-01-29T12:11:34;100523.53;;;1.17;62.63
45467;BME280;31212;49.734;8.490;2023-01-29T12:14:03;100559.19;;;1.33;62.90
45467;BME280;31212;49.734;8.490;2023-01-29T12:16:33;100513.13;;;1.33;62.32
45467;BME280;31212;49.734;8.490;2023-01-29T12:19:08;100530.13;;;1.31;62.37
45467;BME280;31212;49.734;8.490;2023-01-29T12:21:44;100546.44;;;1.55;62.03
45467;BME280;31212;49.734;8.490;2023-01-29T12:24:23;100536.19;;;1.55;62.38
45467;BME280;31212;49.734;8.490;2023-01-29T12:26:54;100530.03;;;1.71;61.62
45467;BME280;31212;49.734;8.490;2023-01-29T12:29:29;100528.06;;;2.07;61.13
45467;BME280;31212;49.734;8.490;2023-01-29T12:32:05;100496.34;;;2.96;60.61
45467;BME280;31212;49.734;8.490;2023-01-29T12:34:40;100368.22;;;3.26;58.83
45467;BME280;31212;49.734;8.490;2023-01-29T12:37:18;100298.47;;;3.38;57.44
45467;BME280;31212;49.734;8.490;2023-01-29T12:39:47;100271.88;;;3.36;57.67
45467;BME280;31212;49.734;8.490;2023-01-29T12:42:17;100240.00;;;3.28;57.08
45467;BME280;31212;49.734;8.490;2023-01-29T12:44:46;100218.53;;;3.24;57.42
45467;BME280;31212;49.734;8.490;2023-01-29T12:47:18;100201.16;;;3.44;57.05
45467;BME280;31212;49.734;8.490;2023-01-29T12:49:50;100194.31;;;3.45;56.97
45467;BME280;31212;49.734;8.490;2023-01-29T12:52:22;100238.72;;;3.13;57.87
45467;BME280;31212;49.734;8.490;2023-01-29T12:54:53;100257.91;;;2.70;57.95
45467;BME280;31212;49.734;8.490;2023-01-29T12:57:24;100295.63;;;2.48;59.13
45467;BME280;31212;49.734;8.490;2023-01-29T12:59:55;100313.97;;;2.35;59.50
45467;BME280;31212;49.734;8.490;2023-01-29T13:02:31;100318.22;;;2.36;59.11
45467;BME280;31212;49.734;8.490;2023-01-29T13:05:02;100361.16;;;2.42;59.54
45467;BME280;31212;49.734;8.490;2023-01-29T13:07:36;100330.22;;;2.37;59.62
45467;BME280;31212;49.734;8.490;2023-01-29T13:10:10;100369.66;;;2.41;59.80
45467;BME280;31212;49.734;8.490;2023-01-29T13:12:51;100377.53;;;2.71;59.98
45467;BME280;31212;49.734;8.490;2023-01-29T13:15:22;100373.03;;;2.90;59.49
45467;BME280;31212;49.734;8.490;2023-01-29T13:17:55;100351.97;;;3.26;58.60
45467;BME280;31212;49.734;8.490;2023-01-29T13:20:25;100314.06;;;3.44;58.22
45467;BME280;31212;49.734;8.490;2023-01-29T13:22:57;100233.97;;;3.26;57.39
45467;BME280;31212;49.734;8.490;2023-01-29T13:25:24;100211.56;;;3.20;57.88
45467;BME280;31212;49.734;8.490;2023-01-29T13:27:51;100235.69;;;2.98;57.82
45467;BME280;31212;49.734;8.490;2023-01-29T13:30:26;100235.97;;;3.07;57.69
45467;BME280;31212;49.734;8.490;2023-01-29T13:32:55;100255.31;;;3.25;57.63
45467;BME280;31212;49.734;8.490;2023-01-29T13:35:34;100271.63;;;2.99;58.21
45467;BME280;31212;49.734;8.490;2023-01-29T13:38:03;100298.34;;;3.33;58.25
45467;BME280;31212;49.734;8.490;2023-01-29T13:40:31;100282.78;;;3.29;58.26
45467;BME280;31212;49.734;8.490;2023-01-29T13:43:00;100272.41;;;3.24;58.46
45467;BME280;31212;49.734;8.490;2023-01-29T13:45:33;100288.81;;;3.02;58.53
45467;BME280;31212;49.734;8.490;2023-01-29T13:48:09;100313.63;;;2.76;59.32
45467;BME280;31212;49.734;8.490;2023-01-29T13:50:38;100326.53;;;2.53;59.69
45467;BME280;31212;49.734;8.490;2023-01-29T13:53:19;100356.94;;;2.19;60.76
45467;BME280;31212;49.734;8.490;2023-01-29T13:55:47;100410.66;;;2.18;61.13
45467;BME280;31212;49.734;8.490;2023-01-29T13:58:15;100436.53;;;2.24;61.47
45467;BME280;31212;49.734;8.490;2023-01-29T14:00:51;100425.03;;;2.14;61.26
45467;BME280;31212;49.734;8.490;2023-01-29T14:03:52;100396.34;;;2.23;60.57
45467;BME280;31212;49.734;8.490;2023-01-29T14:06:37;100393.84;;;2.49;60.16
45467;BME280;31212;49.734;8.490;2023-01-29T14:09:31;100354.59;;;2.50;60.21
45467;BME280;31212;49.734;8.490;2023-01-29T14:11:59;100358.41;;;3.13;59.29
45467;BME280;31212;49.734;8.490;2023-01-29T14:14:49;100271.38;;;3.77;57.55
45467;BME280;31212;49.734;8.490;2023-01-29T14:17:18;100205.16;;;4.32;56.38
45467;BME280;31212;49.734;8.490;2023-01-29T14:19:46;100128.22;;;4.75;55.28
45467;BME280;31212;49.734;8.490;2023-01-29T14:22:19;100090.50;;;5.62;53.77
45467;BME280;31212;49.734;8.490;2023-01-29T14:24:48;99980.94;;;5.83;52.31
45467;BME280;31212;49.734;8.490;2023-01-29T14:27:21;99956.31;;;5.99;51.84
45467;BME280;31212;49.734;8.490;2023-01-29T14:29:50;99935.56;;;6.54;50.27
45467;BME280;31212;49.734;8.490;2023-01-29T14:32:23;99846.44;;;6.85;49.31
45467;BME280;31212;49.734;8.490;2023-01-29T14:34:55;99844.97;;;7.11;48.72
45467;BME280;31212;49.734;8.490;2023-01-29T14:37:29;99890.81;;;7.41;48.59
45467;BME280;31212;49.734;8.490;2023-01-29T14:40:12;99779.81;;;7.50;47.58
45467;BME280;31212;49.734;8.490;2023-01-29T14:42:46;99743.59;;;7.39;46.61
45467;BME280;31212;49.734;8.490;2023-01-29T14:45:24;99789.44;;;7.79;46.35
45467;BME280;31212;49.734;8.490;2023-01-29T14:48:02;99790.31;;;7.89;46.68
45467;BME280;31212;49.734;8.490;2023-01-29T14:50:45;99768.75;;;7.81;46.19
45467;BME280;31212;49.734;8.490;2023-01-29T14:53:17;99777.53;;;8.34;45.86
45467;BME280;31212;49.734;8.490;2023-01-29T14:55:53;99725.75;;;7.98;45.52
45467;BME280;31212;49.734;8.490;2023-01-29T14:58:26;99741.19;;;7.73;45.97
45467;BME280;31212;49.734;8.490;2023-01-29T15:00:56;99780.63;;;7.40;46.16
45467;BME280;31212;49.734;8.490;2023-01-29T15:03:31;99796.81;;;6.20;48.17
45467;BME280;31212;49.734;8.490;2023-01-29T15:06:03;99884.94;;;4.84;50.02
45467;BME280;31212;49.734;8.490;2023-01-29T15:08:37;100007.41;;;3.62;52.79
45467;BME280;31212;49.734;8.490;2023-01-29T15:11:13;100177.06;;;2.54;56.15
45467;BME280;31212;49.734;8.490;2023-01-29T15:14:12;100354.59;;;1.79;58.61
45467;BME280;31212;49.734;8.490;2023-01-29T15:16:47;100488.56;;;1.37;60.39
45467;BME280;31212;49.734;8.490;2023-01-29T15:19:23;100578.84;;;1.15;62.16
45467;BME280;31212;49.734;8.490;2023-01-29T15:22:09;100657.88;;;0.91;63.22
45467;BME280;31212;49.734;8.490;2023-01-29T15:24:38;100702.50;;;0.79;63.79
45467;BME280;31212;49.734;8.490;2023-01-29T15:27:12;100750.19;;;0.61;64.49
45467;BME280;31212;49.734;8.490;2023-01-29T15:29:40;100787.50;;;0.41;65.40
45467;BME280;31212;49.734;8.490;2023-01-29T15:32:14;100833.47;;;0.24;66.43
45467;BME280;31212;49.734;8.490;2023-01-29T15:34:42;100866.75;;;0.09;66.94
45467;BME280;31212;49.734;8.490;2023-01-29T15:37:24;100894.59;;;0.05;67.55
45467;BME280;31212;49.734;8.490;2023-01-29T15:39:51;100911.88;;;-0.06;68.14
45467;BME280;31212;49.734;8.490;2023-01-29T15:42:19;100933.00;;;-0.09;68.42
45467;BME280;31212;49.734;8.490;2023-01-29T15:44:51;100956.44;;;-0.16;68.99
45467;BME280;31212;49.734;8.490;2023-01-29T15:47:20;100969.31;;;-0.29;69.17
45467;BME280;31212;49.734;8.490;2023-01-29T15:49:48;100991.47;;;-0.43;69.87
45467;BME280;31212;49.734;8.490;2023-01-29T15:52:17;101028.63;;;-0.48;70.27
45467;BME280;31212;49.734;8.490;2023-01-29T15:54:46;101036.59;;;-0.57;70.94
45467;BME280;31212;49.734;8.490;2023-01-29T15:57:20;101055.41;;;-0.70;71.35
45467;BME280;31212;49.734;8.490;2023-01-29T15:59:48;101076.69;;;-0.70;71.75
45467;BME280;31212;49.734;8.490;2023-01-29T16:02:35;101082.00;;;-0.80;72.25
45467;BME280;31212;49.734;8.490;2023-01-29T16:05:03;101095.19;;;-0.87;72.45
45467;BME280;31212;49.734;8.490;2023-01-29T16:07:31;101122.56;;;-0.98;73.12
45467;BME280;31212;49.734;8.490;2023-01-29T16:09:58;101140.59;;;-0.95;73.76
45467;BME280;31212;49.734;8.490;2023-01-29T16:12:27;101135.25;;;-1.13;74.01
45467;BME280;31212;49.734;8.490;2023-01-29T16:14:54;101158.28;;;-1.11;74.27
45467;BME280;31212;49.734;8.490;2023-01-29T16:17:23;101159.38;;;-1.21;74.54
45467;BME280;31212;49.734;8.490;2023-01-29T16:19:57;101153.28;;;-1.37;75.25
45467;BME280;31212;49.734;8.490;2023-01-29T16:22:25;101175.94;;;-1.41;75.41
45467;BME280;31212;49.734;8.490;2023-01-29T16:24:53;101193.25;;;-1.49;75.80
45467;BME280;31212;49.734;8.490;2023-01-29T16:27:19;101198.25;;;-1.64;76.04
45467;BME280;31212;49.734;8.490;2023-01-29T16:29:47;101198.84;;;-1.68;76.28
45467;BME280;31212;49.734;8.490;2023-01-29T16:32:14;101207.06;;;-1.72;76.52
45467;BME280;31212;49.734;8.490;2023-01-29T16:34:43;101204.91;;;-1.79;76.24
45467;BME280;31212;49.734;8.490;2023-01-29T16:37:19;101208.47;;;-1.89;76.42
45467;BME280;31212;49.734;8.490;2023-01-29T16:39:48;101220.72;;;-1.97;77.38
45467;BME280;31212;49.734;8.490;2023-01-29T16:42:22;101226.72;;;-2.08;77.37
45467;BME280;31212;49.734;8.490;2023-01-29T16:44:53;101246.59;;;-2.03;78.02
45467;BME280;31212;49.734;8.490;2023-01-29T16:47:25;101253.56;;;-2.00;78.15
45467;BME280;31212;49.734;8.490;2023-01-29T16:49:53;101239.34;;;-2.10;77.98
45467;BME280;31212;49.734;8.490;2023-01-29T16:52:23;101243.03;;;-2.18;78.01
45467;BME280;31212;49.734;8.490;2023-01-29T16:54:51;101250.22;;;-2.24;78.40
45467;BME280;31212;49.734;8.490;2023-01-29T16:57:21;101265.66;;;-2.34;78.30
45467;BME280;31212;49.734;8.490;2023-01-29T16:59:54;101284.69;;;-2.41;78.81
45467;BME280;31212;49.734;8.490;2023-01-29T17:02:25;101295.84;;;-2.39;79.16
45467;BME280;31212;49.734;8.490;2023-01-29T17:04:56;101302.72;;;-2.50;79.14
45467;BME280;31212;49.734;8.490;2023-01-29T17:07:24;101307.16;;;-2.59;80.12
45467;BME280;31212;49.734;8.490;2023-01-29T17:09:53;101330.38;;;-2.66;80.28
45467;BME280;31212;49.734;8.490;2023-01-29T17:12:24;101355.81;;;-2.66;80.39
45467;BME280;31212;49.734;8.490;2023-01-29T17:14:54;101367.38;;;-2.70;81.07
45467;BME280;31212;49.734;8.490;2023-01-29T17:17:27;101378.47;;;-2.69;81.21
45467;BME280;31212;49.734;8.490;2023-01-29T17:19:54;101384.88;;;-2.75;81.27
45467;BME280;31212;49.734;8.490;2023-01-29T17:22:21;101390.50;;;-2.79;81.50
45467;BME280;31212;49.734;8.490;2023-01-29T17:24:47;101403.09;;;-2.80;81.71
45467;BME280;31212;49.734;8.490;2023-01-29T17:27:17;101397.91;;;-2.82;81.89
45467;BME280;31212;49.734;8.490;2023-01-29T17:29:45;101401.22;;;-2.83;82.19
45467;BME280;31212;49.734;8.490;2023-01-29T17:32:13;101407.16;;;-2.82;82.22
45467;BME280;31212;49.734;8.490;2023-01-29T17:34:42;101394.91;;;-2.88;82.26
45467;BME280;31212;49.734;8.490;2023-01-29T17:37:12;101403.84;;;-2.93;82.69
45467;BME280;31212;49.734;8.490;2023-01-29T17:39:38;101411.13;;;-2.98;82.92
45467;BME280;31212;49.734;8.490;2023-01-29T17:42:07;101414.34;;;-3.00;83.09
45467;BME280;31212;49.734;8.490;2023-01-29T17:44:35;101428.56;;;-3.02;83.15
45467;BME280;31212;49.734;8.490;2023-01-29T17:47:02;101430.22;;;-3.03;82.83
45467;BME280;31212;49.734;8.490;2023-01-29T17:49:30;101431.66;;;-3.07;83.09
45467;BME280;31212;49.734;8.490;2023-01-29T17:51:57;101437.19;;;-3.00;83.40
45467;BME280;31212;49.734;8.490;2023-01-29T17:54:24;101426.50;;;-2.96;83.58
45467;BME280;31212;49.734;8.490;2023-01-29T17:56:51;101417.78;;;-2.88;83.16
45467;BME280;31212;49.734;8.490;2023-01-29T17:59:20;101411.03;;;-2.99;82.96
45467;BME280;31212;49.734;8.490;2023-01-29T18:01:47;101401.09;;;-2.96;83.10
45467;BME280;31212;49.734;8.490;2023-01-29T18:04:15;101410.22;;;-2.98;83.35
45467;BME280;31212;49.734;8.490;2023-01-29T18:06:45;101403.72;;;-3.07;82.88
45467;BME280;31212;49.734;8.490;2023-01-29T18:09:13;101412.38;;;-2.93;83.67
45467;BME280;31212;49.734;8.490;2023-01-29T18:11:40;101400.31;;;-2.95;83.26
45467;BME280;31212;49.734;8.490;2023-01-29T18:14:07;101398.06;;;-3.02;83.34
45467;BME280;31212;49.734;8.490;2023-01-29T18:16:34;101390.59;;;-3.01;83.44
45467;BME280;31212;49.734;8.490;2023-01-29T18:19:02;101409.16;;;-2.90;83.11
45467;BME280;31212;49.734;8.490;2023-01-29T18:21:29;101395.25;;;-2.95;83.79
45467;BME280;31212;49.734;8.490;2023-01-29T18:23:57;101389.25;;;-2.96;83.20
45467;BME280;31212;49.734;8.490;2023-01-29T18:26:24;101400.06;;;-2.98;82.90
45467;BME280;31212;49.734;8.490;2023-01-29T18:28:50;101401.84;;;-2.97;83.60
45467;BME280;31212;49.734;8.490;2023-01-29T18:31:17;101395.34;;;-2.94;83.37
45467;BME280;31212;49.734;8.490;2023-01-29T18:33:44;101401.97;;;-2.96;83.55
45467;BME280;31212;49.734;8.490;2023-01-29T18:36:11;101403.94;;;-2.92;83.46
45467;BME280;31212;49.734;8.490;2023-01-29T18:38:38;101398.56;;;-2.84;83.89
45467;BME280;31212;49.734;8.490;2023-01-29T18:41:08;101399.66;;;-2.81;83.90
45467;BME280;31212;49.734;8.490;2023-01-29T18:43:35;101396.47;;;-2.90;83.30
45467;BME280;31212;49.734;8.490;2023-01-29T18:46:02;101402.19;;;-2.81;83.09
45467;BME280;31212;49.734;8.490;2023-01-29T18:48:29;101386.41;;;-2.77;83.26
45467;BME280;31212;49.734;8.490;2023-01-29T18:50:55;101379.66;;;-2.88;83.61
45467;BME280;31212;49.734;8.490;2023-01-29T18:53:22;101386.72;;;-2.96;83.38
45467;BME280;31212;49.734;8.490;2023-01-29T18:55:56;101388.16;;;-2.99;83.64
45467;BME280;31212;49.734;8.490;2023-01-29T18:58:25;101396.44;;;-3.02;84.15
45467;BME280;31212;49.734;8.490;2023-01-29T19:00:51;101396.19;;;-3.05;84.31
45467;BME280;31212;49.734;8.490;2023-01-29T19:03:18;101403.59;;;-3.08;84.63
45467;BME280;31212;49.734;8.490;2023-01-29T19:05:44;101414.13;;;-3.03;84.34
45467;BME280;31212;49.734;8.490;2023-01-29T19:08:11;101425.91;;;-3.04;84.30
45467;BME280;31212;49.734;8.490;2023-01-29T19:10:38;101426.69;;;-3.05;84.87
45467;BME280;31212;49.734;8.490;2023-01-29T19:13:06;101435.44;;;-2.90;84.99
45467;BME280;31212;49.734;8.490;2023-01-29T19:15:34;101431.56;;;-2.96;84.77
45467;BME280;31212;49.734;8.490;2023-01-29T19:18:01;101429.69;;;-2.99;85.14
45467;BME280;31212;49.734;8.490;2023-01-29T19:20:28;101430.16;;;-2.93;84.91
45467;BME280;31212;49.734;8.490;2023-01-29T19:22:55;101424.28;;;-3.03;84.95
45467;BME280;31212;49.734;8.490;2023-01-29T19:25:23;101426.25;;;-3.11;85.33
45467;BME280;31212;49.734;8.490;2023-01-29T19:27:49;101420.34;;;-3.22;85.43
45467;BME280;31212;49.734;8.490;2023-01-29T19:30:16;101426.97;;;-3.24;85.77
45467;BME280;31212;49.734;8.490;2023-01-29T19:32:44;101443.38;;;-3.31;85.24
45467;BME280;31212;49.734;8.490;2023-01-29T19:35:11;101443.94;;;-3.35;86.44
45467;BME280;31212;49.734;8.490;2023-01-29T19:37:37;101449.44;;;-3.41;86.16
45467;BME280;31212;49.734;8.490;2023-01-29T19:40:04;101458.41;;;-3.34;86.82
45467;BME280;31212;49.734;8.490;2023-01-29T19:42:32;101460.81;;;-3.35;86.67
45467;BME280;31212;49.734;8.490;2023-01-29T19:44:59;101466.25;;;-3.31;87.42
45467;BME280;31212;49.734;8.490;2023-01-29T19:47:26;101464.78;;;-3.39;87.35
45467;BME280;31212;49.734;8.490;2023-01-29T19:49:54;101470.44;;;-3.31;87.74
45467;BME280;31212;49.734;8.490;2023-01-29T19:52:21;101460.28;;;-3.31;87.84
45467;BME280;31212;49.734;8.490;2023-01-29T19:55:00;101456.94;;;-3.42;87.66
45467;BME280;31212;49.734;8.490;2023-01-29T19:57:27;101462.31;;;-3.49;87.70
45467;BME280;31212;49.734;8.490;2023-01-29T19:59:55;101462.06;;;-3.52;88.45
45467;BME280;31212;49.734;8.490;2023-01-29T20:02:21;101460.16;;;-3.55;88.42
45467;BME280;31212;49.734;8.490;2023-01-29T20:04:49;101460.59;;;-3.61;88.36
45467;BME280;31212;49.734;8.490;2023-01-29T20:07:17;101461.84;;;-3.56;88.58
45467;BME280;31212;49.734;8.490;2023-01-29T20:09:45;101471.56;;;-3.50;89.11
45467;BME280;31212;49.734;8.490;2023-01-29T20:12:12;101476.91;;;-3.47;88.96
45467;BME280;31212;49.734;8.490;2023-01-29T20:14:39;101483.63;;;-3.47;89.36
45467;BME280;31212;49.734;8.490;2023-01-29T20:17:12;101492.78;;;-3.49;89.70
45467;BME280;31212;49.734;8.490;2023-01-29T20:19:39;101499.38;;;-3.51;89.85
45467;BME280;31212;49.734;8.490;2023-01-29T20:22:06;101507.72;;;-3.42;89.91
45467;BME280;31212;49.734;8.490;2023-01-29T20:24:34;101502.75;;;-3.41;90.27
45467;BME280;31212;49.734;8.490;2023-01-29T20:27:04;101507.94;;;-3.39;90.71
45467;BME280;31212;49.734;8.490;2023-01-29T20:29:31;101515.03;;;-3.35;90.24
45467;BME280;31212;49.734;8.490;2023-01-29T20:31:57;101517.81;;;-3.32;90.72
45467;BME280;31212;49.734;8.490;2023-01-29T20:34:24;101511.94;;;-3.31;90.65
45467;BME280;31212;49.734;8.490;2023-01-29T20:36:51;101520.00;;;-3.14;90.62
45467;BME280;31212;49.734;8.490;2023-01-29T20:39:17;101504.16;;;-3.22;91.10
45467;BME280;31212;49.734;8.490;2023-01-29T20:41:45;101498.06;;;-3.24;91.00
45467;BME280;31212;49.734;8.490;2023-01-29T20:44:12;101508.00;;;-3.27;90.74
45467;BME280;31212;49.734;8.490;2023-01-29T20:46:38;101505.34;;;-3.29;90.55
45467;BME280;31212;49.734;8.490;2023-01-29T20:49:07;101507.56;;;-3.22;90.62
45467;BME280;31212;49.734;8.490;2023-01-29T20:51:34;101504.81;;;-3.25;90.81
45467;BME280;31212;49.734;8.490;2023-01-29T20:54:00;101502.38;;;-3.23;90.58
45467;BME280;31212;49.734;8.490;2023-01-29T20:56:27;101488.63;;;-3.15;90.47
45467;BME280;31212;49.734;8.490;2023-01-29T20:58:54;101474.81;;;-3.18;90.68
45467;BME280;31212;49.734;8.490;2023-01-29T21:01:21;101465.16;;;-3.23;90.35
45467;BME280;31212;49.734;8.490;2023-01-29T21:03:47;101457.31;;;-3.26;90.74
45467;BME280;31212;49.734;8.490;2023-01-29T21:06:14;101465.00;;;-3.14;90.28
45467;BME280;31212;49.734;8.490;2023-01-29T21:08:41;101453.28;;;-3.12;90.28
45467;BME280;31212;49.734;8.490;2023-01-29T21:11:08;101450.63;;;-3.13;89.78
45467;BME280;31212;49.734;8.490;2023-01-29T21:13:36;101441.91;;;-3.17;90.32
45467;BME280;31212;49.734;8.490;2023-01-29T21:16:04;101429.22;;;-3.17;90.13